sensor_id;sensor_type;location;lat;lon;timestamp;P1;P2;P0
79141;PMS5003;68550;-26.480;29.234;2023-04-01T00:01:22;7;6;
79141;PMS5003;68550;-26.480;29.234;2023-04-01T00:03:46;7;7;
79141;PMS5003;68550;-26.480;29.234;2023-04-01T00:06:12;7;7;
79141;PMS5003;68550;-26.480;29.234;2023-04-01T00:08:37;6;5;
79141;PMS5003;68550;-26.480;29.234;2023-04-01T00:11:02;6;5;
79141;PMS5003;68550;-26.480;29.234;2023-04-01T00:13:28;6;6;
79141;PMS5003;68550;-26.480;29.234;2023-04-01T00:15:53;6;6;
79141;PMS5003;68550;-26.480;29.234;2023-04-01T00:18:19;9;9;
79141;PMS5003;68550;-26.480;29.234;2023-04-01T00:20:44;10;9;
79141;PMS5003;68550;-26.480;29.234;2023-04-01T00:23:09;9;8;
79141;PMS5003;68550;-26.480;29.234;2023-04-01T00:25:35;8;8;
79141;PMS5003;68550;-26.480;29.234;2023-04-01T00:28:01;8;8;
79141;PMS5003;68550;-26.480;29.234;2023-04-01T00:30:26;9;8;
79141;PMS5003;68550;-26.480;29.234;2023-04-01T00:32:51;10;10;
79141;PMS5003;68550;-26.480;29.234;2023-04-01T00:35:16;8;8;
79141;PMS5003;68550;-26.480;29.234;2023-04-01T00:37:41;9;9;
79141;PMS5003;68550;-26.480;29.234;2023-04-01T00:40:08;9;9;
79141;PMS5003;68550;-26.480;29.234;2023-04-01T00:42:32;12;10;
79141;PMS5003;68550;-26.480;29.234;2023-04-01T00:44:58;10;9;
79141;PMS5003;68550;-26.480;29.234;2023-04-01T00:47:23;9;8;
79141;PMS5003;68550;-26.480;29.234;2023-04-01T00:49:50;9;9;
79141;PMS5003;68550;-26.480;29.234;2023-04-01T00:52:15;9;9;
79141;PMS5003;68550;-26.480;29.234;2023-04-01T00:54:39;11;11;
79141;PMS5003;68550;-26.480;29.234;2023-04-01T00:57:05;11;10;
79141;PMS5003;68550;-26.480;29.234;2023-04-01T00:59:31;11;11;
79141;PMS5003;68550;-26.480;29.234;2023-04-01T01:01:56;10;10;
79141;PMS5003;68550;-26.480;29.234;2023-04-01T01:06:13;12;7;
79141;PMS5003;68550;-26.480;29.234;2023-04-01T01:08:43;15;13;
79141;PMS5003;68550;-26.480;29.234;2023-04-01T01:11:01;10;10;
79141;PMS5003;68550;-26.480;29.234;2023-04-01T01:13:29;13;12;
79141;PMS5003;68550;-26.480;29.234;2023-04-01T01:15:53;11;11;
79141;PMS5003;68550;-26.480;29.234;2023-04-01T01:18:19;10;10;
79141;PMS5003;68550;-26.480;29.234;2023-04-01T01:20:54;15;14;
79141;PMS5003;68550;-26.480;29.234;2023-04-01T01:25:35;11;11;
79141;PMS5003;68550;-26.480;29.234;2023-04-01T01:42:37;13;13;
79141;PMS5003;68550;-26.480;29.234;2023-04-01T01:44:56;13;13;
79141;PMS5003;68550;-26.480;29.234;2023-04-01T01:47:21;13;12;
79141;PMS5003;68550;-26.480;29.234;2023-04-01T01:49:49;16;16;
79141;PMS5003;68550;-26.480;29.234;2023-04-01T01:52:12;13;13;
79141;PMS5003;68550;-26.480;29.234;2023-04-01T01:59:28;14;13;
79141;PMS5003;68550;-26.480;29.234;2023-04-01T02:01:55;15;13;
79141;PMS5003;68550;-26.480;29.234;2023-04-01T02:04:19;15;13;
79141;PMS5003;68550;-26.480;29.234;2023-04-01T02:06:46;13;13;
79141;PMS5003;68550;-26.480;29.234;2023-04-01T02:16:26;17;17;
79141;PMS5003;68550;-26.480;29.234;2023-04-01T02:18:51;19;18;
79141;PMS5003;68550;-26.480;29.234;2023-04-01T02:21:16;14;14;
79141;PMS5003;68550;-26.480;29.234;2023-04-01T02:23:41;15;15;
79141;PMS5003;68550;-26.480;29.234;2023-04-01T02:26:09;16;16;
79141;PMS5003;68550;-26.480;29.234;2023-04-01T02:28:32;15;15;
79141;PMS5003;68550;-26.480;29.234;2023-04-01T02:30:58;16;16;
79141;PMS5003;68550;-26.480;29.234;2023-04-01T02:47:56;18;17;
79141;PMS5003;68550;-26.480;29.234;2023-04-01T02:50:21;15;15;
79141;PMS5003;68550;-26.480;29.234;2023-04-01T02:52:47;18;17;
79141;PMS5003;68550;-26.480;29.234;2023-04-01T02:55:12;19;18;
79141;PMS5003;68550;-26.480;29.234;2023-04-01T02:57:37;17;16;
79141;PMS5003;68550;-26.480;29.234;2023-04-01T03:00:02;16;16;
79141;PMS5003;68550;-26.480;29.234;2023-04-01T03:04:20;10;10;
79141;PMS5003;68550;-26.480;29.234;2023-04-01T03:06:44;17;15;
79141;PMS5003;68550;-26.480;29.234;2023-04-01T03:09:09;20;20;
79141;PMS5003;68550;-26.480;29.234;2023-04-01T03:11:34;15;15;
79141;PMS5003;68550;-26.480;29.234;2023-04-01T03:14:00;23;22;
79141;PMS5003;68550;-26.480;29.234;2023-04-01T03:16:25;27;25;
79141;PMS5003;68550;-26.480;29.234;2023-04-01T03:18:50;16;16;
79141;PMS5003;68550;-26.480;29.234;2023-04-01T03:21:17;21;21;
79141;PMS5003;68550;-26.480;29.234;2023-04-01T03:23:42;18;18;
79141;PMS5003;68550;-26.480;29.234;2023-04-01T03:26:07;18;17;
79141;PMS5003;68550;-26.480;29.234;2023-04-01T03:28:32;22;22;
79141;PMS5003;68550;-26.480;29.234;2023-04-01T03:30:58;18;17;
79141;PMS5003;68550;-26.480;29.234;2023-04-01T03:33:23;18;18;
79141;PMS5003;68550;-26.480;29.234;2023-04-01T03:35:48;19;18;
79141;PMS5003;68550;-26.480;29.234;2023-04-01T03:38:13;20;20;
79141;PMS5003;68550;-26.480;29.234;2023-04-01T03:40:42;18;18;
79141;PMS5003;68550;-26.480;29.234;2023-04-01T03:43:04;19;18;
79141;PMS5003;68550;-26.480;29.234;2023-04-01T03:45:29;24;22;
79141;PMS5003;68550;-26.480;29.234;2023-04-01T03:47:58;20;20;
79141;PMS5003;68550;-26.480;29.234;2023-04-01T03:50:20;20;19;
79141;PMS5003;68550;-26.480;29.234;2023-04-01T03:52:47;17;17;
79141;PMS5003;68550;-26.480;29.234;2023-04-01T03:55:12;20;19;
79141;PMS5003;68550;-26.480;29.234;2023-04-01T03:57:37;21;21;
79141;PMS5003;68550;-26.480;29.234;2023-04-01T04:00:03;20;20;
79141;PMS5003;68550;-26.480;29.234;2023-04-01T04:02:28;16;16;
79141;PMS5003;68550;-26.480;29.234;2023-04-01T04:04:53;19;19;
79141;PMS5003;68550;-26.480;29.234;2023-04-01T04:07:19;18;17;
79141;PMS5003;68550;-26.480;29.234;2023-04-01T04:09:44;17;16;
79141;PMS5003;68550;-26.480;29.234;2023-04-01T04:12:11;18;18;
79141;PMS5003;68550;-26.480;29.234;2023-04-01T04:14:34;24;22;
79141;PMS5003;68550;-26.480;29.234;2023-04-01T04:16:59;18;16;
79141;PMS5003;68550;-26.480;29.234;2023-04-01T04:19:25;22;21;
79141;PMS5003;68550;-26.480;29.234;2023-04-01T04:21:50;19;18;
79141;PMS5003;68550;-26.480;29.234;2023-04-01T04:24:16;20;20;
79141;PMS5003;68550;-26.480;29.234;2023-04-01T04:26:43;17;17;
79141;PMS5003;68550;-26.480;29.234;2023-04-01T04:29:06;22;22;
79141;PMS5003;68550;-26.480;29.234;2023-04-01T04:31:32;16;16;
79141;PMS5003;68550;-26.480;29.234;2023-04-01T04:33:58;19;19;
79141;PMS5003;68550;-26.480;29.234;2023-04-01T04:36:23;19;19;
79141;PMS5003;68550;-26.480;29.234;2023-04-01T04:38:47;19;18;
79141;PMS5003;68550;-26.480;29.234;2023-04-01T04:41:13;22;22;
79141;PMS5003;68550;-26.480;29.234;2023-04-01T04:43:38;19;19;
79141;PMS5003;68550;-26.480;29.234;2023-04-01T04:46:04;23;23;
79141;PMS5003;68550;-26.480;29.234;2023-04-01T04:48:29;19;18;
79141;PMS5003;68550;-26.480;29.234;2023-04-01T04:50:54;17;17;
79141;PMS5003;68550;-26.480;29.234;2023-04-01T04:53:19;18;18;
79141;PMS5003;68550;-26.480;29.234;2023-04-01T04:55:45;21;20;
79141;PMS5003;68550;-26.480;29.234;2023-04-01T04:58:10;23;22;
79141;PMS5003;68550;-26.480;29.234;2023-04-01T05:00:36;20;19;
79141;PMS5003;68550;-26.480;29.234;2023-04-01T05:03:01;25;25;
79141;PMS5003;68550;-26.480;29.234;2023-04-01T05:05:26;22;20;
79141;PMS5003;68550;-26.480;29.234;2023-04-01T05:07:52;23;23;
79141;PMS5003;68550;-26.480;29.234;2023-04-01T05:10:17;19;19;
79141;PMS5003;68550;-26.480;29.234;2023-04-01T05:12:42;21;20;
79141;PMS5003;68550;-26.480;29.234;2023-04-01T05:15:08;21;20;
79141;PMS5003;68550;-26.480;29.234;2023-04-01T05:17:33;21;21;
79141;PMS5003;68550;-26.480;29.234;2023-04-01T05:19:58;23;21;
79141;PMS5003;68550;-26.480;29.234;2023-04-01T05:22:24;26;25;
79141;PMS5003;68550;-26.480;29.234;2023-04-01T05:24:51;24;24;
79141;PMS5003;68550;-26.480;29.234;2023-04-01T05:27:14;18;17;
79141;PMS5003;68550;-26.480;29.234;2023-04-01T05:29:39;19;18;
79141;PMS5003;68550;-26.480;29.234;2023-04-01T05:32:05;22;22;
79141;PMS5003;68550;-26.480;29.234;2023-04-01T05:34:31;21;21;
79141;PMS5003;68550;-26.480;29.234;2023-04-01T05:36:56;21;21;
79141;PMS5003;68550;-26.480;29.234;2023-04-01T05:39:25;19;19;
79141;PMS5003;68550;-26.480;29.234;2023-04-01T05:41:47;15;15;
79141;PMS5003;68550;-26.480;29.234;2023-04-01T05:44:12;17;17;
79141;PMS5003;68550;-26.480;29.234;2023-04-01T05:46:37;21;21;
79141;PMS5003;68550;-26.480;29.234;2023-04-01T05:49:03;21;21;
79141;PMS5003;68550;-26.480;29.234;2023-04-01T05:51:29;21;20;
79141;PMS5003;68550;-26.480;29.234;2023-04-01T05:53:54;20;19;
79141;PMS5003;68550;-26.480;29.234;2023-04-01T05:56:20;21;21;
79141;PMS5003;68550;-26.480;29.234;2023-04-01T05:58:45;19;19;
79141;PMS5003;68550;-26.480;29.234;2023-04-01T06:01:11;22;20;
79141;PMS5003;68550;-26.480;29.234;2023-04-01T06:03:37;21;20;
79141;PMS5003;68550;-26.480;29.234;2023-04-01T06:06:01;21;21;
79141;PMS5003;68550;-26.480;29.234;2023-04-01T06:08:27;18;16;
79141;PMS5003;68550;-26.480;29.234;2023-04-01T06:10:55;18;18;
79141;PMS5003;68550;-26.480;29.234;2023-04-01T06:13:19;16;16;
79141;PMS5003;68550;-26.480;29.234;2023-04-01T06:15:47;18;18;
79141;PMS5003;68550;-26.480;29.234;2023-04-01T06:20:34;21;20;
79141;PMS5003;68550;-26.480;29.234;2023-04-01T06:23:06;18;18;
79141;PMS5003;68550;-26.480;29.234;2023-04-01T06:25:27;21;19;
79141;PMS5003;68550;-26.480;29.234;2023-04-01T06:27:52;21;20;
79141;PMS5003;68550;-26.480;29.234;2023-04-01T06:32:48;23;23;
79141;PMS5003;68550;-26.480;29.234;2023-04-01T06:44:48;24;23;
79141;PMS5003;68550;-26.480;29.234;2023-04-01T06:47:18;21;20;
79141;PMS5003;68550;-26.480;29.234;2023-04-01T06:49:46;23;22;
79141;PMS5003;68550;-26.480;29.234;2023-04-01T06:52:08;22;21;
79141;PMS5003;68550;-26.480;29.234;2023-04-01T06:54:30;19;18;
79141;PMS5003;68550;-26.480;29.234;2023-04-01T06:56:53;21;19;
79141;PMS5003;68550;-26.480;29.234;2023-04-01T06:59:22;25;21;
79141;PMS5003;68550;-26.480;29.234;2023-04-01T07:01:45;21;21;
79141;PMS5003;68550;-26.480;29.234;2023-04-01T07:04:11;17;16;
79141;PMS5003;68550;-26.480;29.234;2023-04-01T07:06:36;20;19;
79141;PMS5003;68550;-26.480;29.234;2023-04-01T07:09:00;21;18;
79141;PMS5003;68550;-26.480;29.234;2023-04-01T07:11:26;17;17;
79141;PMS5003;68550;-26.480;29.234;2023-04-01T07:13:51;16;16;
79141;PMS5003;68550;-26.480;29.234;2023-04-01T07:16:17;17;16;
79141;PMS5003;68550;-26.480;29.234;2023-04-01T07:18:42;19;19;
79141;PMS5003;68550;-26.480;29.234;2023-04-01T07:21:07;24;24;
79141;PMS5003;68550;-26.480;29.234;2023-04-01T07:23:32;20;20;
79141;PMS5003;68550;-26.480;29.234;2023-04-01T07:25:59;20;19;
79141;PMS5003;68550;-26.480;29.234;2023-04-01T07:28:22;18;18;
79141;PMS5003;68550;-26.480;29.234;2023-04-01T07:30:49;16;16;
79141;PMS5003;68550;-26.480;29.234;2023-04-01T07:33:14;22;21;
79141;PMS5003;68550;-26.480;29.234;2023-04-01T07:35:39;18;18;
79141;PMS5003;68550;-26.480;29.234;2023-04-01T07:38:08;19;18;
79141;PMS5003;68550;-26.480;29.234;2023-04-01T07:40:32;19;18;
79141;PMS5003;68550;-26.480;29.234;2023-04-01T07:45:22;17;17;
79141;PMS5003;68550;-26.480;29.234;2023-04-01T07:47:51;17;17;
79141;PMS5003;68550;-26.480;29.234;2023-04-01T07:50:14;21;20;
79141;PMS5003;68550;-26.480;29.234;2023-04-01T07:52:39;18;16;
79141;PMS5003;68550;-26.480;29.234;2023-04-01T07:55:04;17;17;
79141;PMS5003;68550;-26.480;29.234;2023-04-01T07:57:30;15;14;
79141;PMS5003;68550;-26.480;29.234;2023-04-01T07:59:56;12;12;
79141;PMS5003;68550;-26.480;29.234;2023-04-01T08:02:22;17;15;
79141;PMS5003;68550;-26.480;29.234;2023-04-01T08:04:48;15;14;
79141;PMS5003;68550;-26.480;29.234;2023-04-01T08:07:10;12;12;
79141;PMS5003;68550;-26.480;29.234;2023-04-01T08:09:40;14;14;
79141;PMS5003;68550;-26.480;29.234;2023-04-01T08:12:04;13;12;
79141;PMS5003;68550;-26.480;29.234;2023-04-01T08:14:28;15;13;
79141;PMS5003;68550;-26.480;29.234;2023-04-01T08:16:53;11;11;
79141;PMS5003;68550;-26.480;29.234;2023-04-01T08:19:19;12;12;
79141;PMS5003;68550;-26.480;29.234;2023-04-01T08:21:45;12;12;
79141;PMS5003;68550;-26.480;29.234;2023-04-01T08:24:10;11;11;
79141;PMS5003;68550;-26.480;29.234;2023-04-01T08:26:34;11;11;
79141;PMS5003;68550;-26.480;29.234;2023-04-01T08:28:59;12;12;
79141;PMS5003;68550;-26.480;29.234;2023-04-01T08:31:24;9;9;
79141;PMS5003;68550;-26.480;29.234;2023-04-01T08:33:49;10;10;
79141;PMS5003;68550;-26.480;29.234;2023-04-01T08:36:14;10;10;
79141;PMS5003;68550;-26.480;29.234;2023-04-01T08:38:40;8;8;
79141;PMS5003;68550;-26.480;29.234;2023-04-01T08:41:12;9;9;
79141;PMS5003;68550;-26.480;29.234;2023-04-01T08:46:00;9;9;
79141;PMS5003;68550;-26.480;29.234;2023-04-01T08:50:51;9;9;
79141;PMS5003;68550;-26.480;29.234;2023-04-01T08:53:12;10;10;
79141;PMS5003;68550;-26.480;29.234;2023-04-01T08:55:38;7;7;
79141;PMS5003;68550;-26.480;29.234;2023-04-01T08:58:07;10;9;
79141;PMS5003;68550;-26.480;29.234;2023-04-01T09:00:29;9;9;
79141;PMS5003;68550;-26.480;29.234;2023-04-01T09:07:13;7;6;
79141;PMS5003;68550;-26.480;29.234;2023-04-01T09:14:34;10;9;
79141;PMS5003;68550;-26.480;29.234;2023-04-01T09:19:20;8;8;
79141;PMS5003;68550;-26.480;29.234;2023-04-01T09:26:37;8;7;
79141;PMS5003;68550;-26.480;29.234;2023-04-01T09:29:02;7;7;
79141;PMS5003;68550;-26.480;29.234;2023-04-01T09:31:26;8;8;
79141;PMS5003;68550;-26.480;29.234;2023-04-01T09:33:54;8;8;
79141;PMS5003;68550;-26.480;29.234;2023-04-01T09:36:18;9;9;
79141;PMS5003;68550;-26.480;29.234;2023-04-01T09:38:42;8;8;
79141;PMS5003;68550;-26.480;29.234;2023-04-01T09:41:06;6;6;
79141;PMS5003;68550;-26.480;29.234;2023-04-01T09:43:32;10;7;
79141;PMS5003;68550;-26.480;29.234;2023-04-01T09:46:01;9;9;
79141;PMS5003;68550;-26.480;29.234;2023-04-01T09:48:28;8;8;
79141;PMS5003;68550;-26.480;29.234;2023-04-01T09:50:48;7;7;
79141;PMS5003;68550;-26.480;29.234;2023-04-01T09:53:14;9;8;
79141;PMS5003;68550;-26.480;29.234;2023-04-01T10:00:31;9;9;
79141;PMS5003;68550;-26.480;29.234;2023-04-01T10:05:29;10;10;
79141;PMS5003;68550;-26.480;29.234;2023-04-01T10:17:34;12;12;
79141;PMS5003;68550;-26.480;29.234;2023-04-01T10:22:19;18;18;
79141;PMS5003;68550;-26.480;29.234;2023-04-01T10:27:11;12;11;
79141;PMS5003;68550;-26.480;29.234;2023-04-01T10:36:49;11;11;
79141;PMS5003;68550;-26.480;29.234;2023-04-01T10:51:25;12;12;
79141;PMS5003;68550;-26.480;29.234;2023-04-01T10:58:41;12;12;
79141;PMS5003;68550;-26.480;29.234;2023-04-01T11:01:11;12;11;
79141;PMS5003;68550;-26.480;29.234;2023-04-01T11:10:31;8;8;
79141;PMS5003;68550;-26.480;29.234;2023-04-01T11:17:47;9;9;
79141;PMS5003;68550;-26.480;29.234;2023-04-01T11:20:10;8;8;
79141;PMS5003;68550;-26.480;29.234;2023-04-01T11:22:39;11;11;
79141;PMS5003;68550;-26.480;29.234;2023-04-01T11:25:00;10;10;
79141;PMS5003;68550;-26.480;29.234;2023-04-01T11:27:27;13;13;
79141;PMS5003;68550;-26.480;29.234;2023-04-01T11:29:52;11;11;
79141;PMS5003;68550;-26.480;29.234;2023-04-01T11:32:19;11;11;
79141;PMS5003;68550;-26.480;29.234;2023-04-01T11:34:50;11;10;
79141;PMS5003;68550;-26.480;29.234;2023-04-01T11:37:06;11;10;
79141;PMS5003;68550;-26.480;29.234;2023-04-01T11:39:31;11;11;
79141;PMS5003;68550;-26.480;29.234;2023-04-01T11:41:58;12;12;
79141;PMS5003;68550;-26.480;29.234;2023-04-01T11:44:21;12;11;
79141;PMS5003;68550;-26.480;29.234;2023-04-01T11:46:52;12;12;
79141;PMS5003;68550;-26.480;29.234;2023-04-01T11:49:17;12;12;
79141;PMS5003;68550;-26.480;29.234;2023-04-01T11:54:04;10;10;
79141;PMS5003;68550;-26.480;29.234;2023-04-01T11:56:31;11;11;
79141;PMS5003;68550;-26.480;29.234;2023-04-01T11:58:56;11;10;
79141;PMS5003;68550;-26.480;29.234;2023-04-01T12:03:48;13;13;
79141;PMS5003;68550;-26.480;29.234;2023-04-01T12:06:09;10;10;
79141;PMS5003;68550;-26.480;29.234;2023-04-01T12:08:36;9;9;
79141;PMS5003;68550;-26.480;29.234;2023-04-01T12:11:00;9;8;
79141;PMS5003;68550;-26.480;29.234;2023-04-01T12:13:27;8;8;
79141;PMS5003;68550;-26.480;29.234;2023-04-01T12:15:54;12;12;
79141;PMS5003;68550;-26.480;29.234;2023-04-01T12:18:15;12;11;
79141;PMS5003;68550;-26.480;29.234;2023-04-01T12:20:44;10;10;
79141;PMS5003;68550;-26.480;29.234;2023-04-01T12:23:10;8;8;
79141;PMS5003;68550;-26.480;29.234;2023-04-01T12:25:38;9;9;
79141;PMS5003;68550;-26.480;29.234;2023-04-01T12:28:04;9;9;
79141;PMS5003;68550;-26.480;29.234;2023-04-01T12:30:26;12;11;
79141;PMS5003;68550;-26.480;29.234;2023-04-01T12:32:48;13;13;
79141;PMS5003;68550;-26.480;29.234;2023-04-01T12:35:17;11;9;
79141;PMS5003;68550;-26.480;29.234;2023-04-01T12:37:41;8;8;
79141;PMS5003;68550;-26.480;29.234;2023-04-01T12:40:09;10;10;
79141;PMS5003;68550;-26.480;29.234;2023-04-01T12:42:35;11;11;
79141;PMS5003;68550;-26.480;29.234;2023-04-01T12:44:56;10;10;
79141;PMS5003;68550;-26.480;29.234;2023-04-01T13:06:44;8;8;
79141;PMS5003;68550;-26.480;29.234;2023-04-01T13:09:10;10;10;
79141;PMS5003;68550;-26.480;29.234;2023-04-01T13:11:36;10;10;
79141;PMS5003;68550;-26.480;29.234;2023-04-01T13:14:04;9;9;
79141;PMS5003;68550;-26.480;29.234;2023-04-01T13:16:23;11;10;
79141;PMS5003;68550;-26.480;29.234;2023-04-01T13:18:52;8;8;
79141;PMS5003;68550;-26.480;29.234;2023-04-01T13:21:15;7;7;
79141;PMS5003;68550;-26.480;29.234;2023-04-01T13:23:45;9;9;
79141;PMS5003;68550;-26.480;29.234;2023-04-01T13:26:07;7;7;
79141;PMS5003;68550;-26.480;29.234;2023-04-01T13:28:29;8;8;
79141;PMS5003;68550;-26.480;29.234;2023-04-01T13:30:57;8;8;
79141;PMS5003;68550;-26.480;29.234;2023-04-01T13:33:24;10;10;
79141;PMS5003;68550;-26.480;29.234;2023-04-01T13:35:48;9;9;
79141;PMS5003;68550;-26.480;29.234;2023-04-01T13:38:17;10;10;
79141;PMS5003;68550;-26.480;29.234;2023-04-01T13:40:37;10;9;
79141;PMS5003;68550;-26.480;29.234;2023-04-01T13:43:02;7;7;
79141;PMS5003;68550;-26.480;29.234;2023-04-01T13:45:28;7;7;
79141;PMS5003;68550;-26.480;29.234;2023-04-01T13:48:02;9;9;
79141;PMS5003;68550;-26.480;29.234;2023-04-01T13:52:48;7;7;
79141;PMS5003;68550;-26.480;29.234;2023-04-01T13:57:39;6;6;
79141;PMS5003;68550;-26.480;29.234;2023-04-01T14:00:03;7;7;
79141;PMS5003;68550;-26.480;29.234;2023-04-01T14:04:52;8;8;
79141;PMS5003;68550;-26.480;29.234;2023-04-01T14:07:18;10;9;
79141;PMS5003;68550;-26.480;29.234;2023-04-01T14:12:09;7;7;
79141;PMS5003;68550;-26.480;29.234;2023-04-01T14:14:35;7;7;
79141;PMS5003;68550;-26.480;29.234;2023-04-01T14:17:03;7;7;
79141;PMS5003;68550;-26.480;29.234;2023-04-01T14:19:26;9;9;
79141;PMS5003;68550;-26.480;29.234;2023-04-01T14:21:49;8;8;
79141;PMS5003;68550;-26.480;29.234;2023-04-01T14:24:17;8;8;
79141;PMS5003;68550;-26.480;29.234;2023-04-01T14:29:08;8;8;
79141;PMS5003;68550;-26.480;29.234;2023-04-01T14:31:34;7;7;
79141;PMS5003;68550;-26.480;29.234;2023-04-01T14:33:57;7;7;
79141;PMS5003;68550;-26.480;29.234;2023-04-01T14:38:48;8;8;
79141;PMS5003;68550;-26.480;29.234;2023-04-01T14:41:15;8;8;
79141;PMS5003;68550;-26.480;29.234;2023-04-01T14:46:06;7;7;
79141;PMS5003;68550;-26.480;29.234;2023-04-01T14:48:30;7;7;
79141;PMS5003;68550;-26.480;29.234;2023-04-01T14:50:52;8;8;
79141;PMS5003;68550;-26.480;29.234;2023-04-01T14:53:23;6;6;
79141;PMS5003;68550;-26.480;29.234;2023-04-01T14:55:47;7;7;
79141;PMS5003;68550;-26.480;29.234;2023-04-01T14:58:09;7;7;
79141;PMS5003;68550;-26.480;29.234;2023-04-01T15:02:58;8;8;
79141;PMS5003;68550;-26.480;29.234;2023-04-01T15:05:27;8;8;
79141;PMS5003;68550;-26.480;29.234;2023-04-01T15:10:18;10;10;
79141;PMS5003;68550;-26.480;29.234;2023-04-01T15:12:40;9;9;
79141;PMS5003;68550;-26.480;29.234;2023-04-01T15:17:35;8;8;
79141;PMS5003;68550;-26.480;29.234;2023-04-01T15:20:01;9;9;
79141;PMS5003;68550;-26.480;29.234;2023-04-01T15:22:26;10;10;
79141;PMS5003;68550;-26.480;29.234;2023-04-01T15:25:00;8;8;
79141;PMS5003;68550;-26.480;29.234;2023-04-01T15:27:17;11;10;
79141;PMS5003;68550;-26.480;29.234;2023-04-01T15:29:41;9;9;
79141;PMS5003;68550;-26.480;29.234;2023-04-01T15:32:05;8;8;
79141;PMS5003;68550;-26.480;29.234;2023-04-01T15:34:30;10;9;
79141;PMS5003;68550;-26.480;29.234;2023-04-01T15:36:55;9;9;
79141;PMS5003;68550;-26.480;29.234;2023-04-01T15:39:19;10;10;
79141;PMS5003;68550;-26.480;29.234;2023-04-01T15:41:48;9;8;
79141;PMS5003;68550;-26.480;29.234;2023-04-01T15:46:43;8;8;
79141;PMS5003;68550;-26.480;29.234;2023-04-01T15:49:06;11;11;
79141;PMS5003;68550;-26.480;29.234;2023-04-01T15:51:29;9;9;
79141;PMS5003;68550;-26.480;29.234;2023-04-01T15:53:55;8;8;
79141;PMS5003;68550;-26.480;29.234;2023-04-01T15:56:21;9;9;
79141;PMS5003;68550;-26.480;29.234;2023-04-01T15:58:46;10;10;
79141;PMS5003;68550;-26.480;29.234;2023-04-01T16:01:09;11;11;
79141;PMS5003;68550;-26.480;29.234;2023-04-01T16:03:34;9;9;
79141;PMS5003;68550;-26.480;29.234;2023-04-01T16:06:03;10;10;
79141;PMS5003;68550;-26.480;29.234;2023-04-01T16:10:52;9;9;
79141;PMS5003;68550;-26.480;29.234;2023-04-01T16:13:18;9;9;
79141;PMS5003;68550;-26.480;29.234;2023-04-01T16:15:41;9;9;
79141;PMS5003;68550;-26.480;29.234;2023-04-01T16:18:09;11;11;
79141;PMS5003;68550;-26.480;29.234;2023-04-01T16:20:39;9;9;
79141;PMS5003;68550;-26.480;29.234;2023-04-01T16:22:55;11;10;
79141;PMS5003;68550;-26.480;29.234;2023-04-01T16:25:24;12;12;
79141;PMS5003;68550;-26.480;29.234;2023-04-01T16:27:47;11;11;
79141;PMS5003;68550;-26.480;29.234;2023-04-01T16:32:38;9;9;
79141;PMS5003;68550;-26.480;29.234;2023-04-01T16:35:10;9;9;
79141;PMS5003;68550;-26.480;29.234;2023-04-01T16:37:30;9;9;
79141;PMS5003;68550;-26.480;29.234;2023-04-01T16:39:53;9;9;
79141;PMS5003;68550;-26.480;29.234;2023-04-01T16:42:24;15;14;
79141;PMS5003;68550;-26.480;29.234;2023-04-01T16:44:48;10;10;
79141;PMS5003;68550;-26.480;29.234;2023-04-01T16:47:09;10;10;
79141;PMS5003;68550;-26.480;29.234;2023-04-01T16:49:36;11;11;
79141;PMS5003;68550;-26.480;29.234;2023-04-01T16:52:04;12;11;
79141;PMS5003;68550;-26.480;29.234;2023-04-01T16:54:28;9;9;
79141;PMS5003;68550;-26.480;29.234;2023-04-01T16:56:53;12;11;
79141;PMS5003;68550;-26.480;29.234;2023-04-01T16:59:17;9;9;
79141;PMS5003;68550;-26.480;29.234;2023-04-01T17:01:43;12;11;
79141;PMS5003;68550;-26.480;29.234;2023-04-01T17:05:44;11;11;
79141;PMS5003;68550;-26.480;29.234;2023-04-01T17:08:09;11;11;
79141;PMS5003;68550;-26.480;29.234;2023-04-01T17:13:06;9;9;
79141;PMS5003;68550;-26.480;29.234;2023-04-01T17:15:26;7;7;
79141;PMS5003;68550;-26.480;29.234;2023-04-01T17:17:50;8;8;
79141;PMS5003;68550;-26.480;29.234;2023-04-01T17:20:20;9;9;
79141;PMS5003;68550;-26.480;29.234;2023-04-01T17:22:40;11;11;
79141;PMS5003;68550;-26.480;29.234;2023-04-01T17:25:10;9;9;
79141;PMS5003;68550;-26.480;29.234;2023-04-01T17:27:33;8;8;
79141;PMS5003;68550;-26.480;29.234;2023-04-01T17:30:02;11;11;
79141;PMS5003;68550;-26.480;29.234;2023-04-01T17:32:22;11;11;
79141;PMS5003;68550;-26.480;29.234;2023-04-01T17:37:16;9;9;
79141;PMS5003;68550;-26.480;29.234;2023-04-01T17:39:41;10;9;
79141;PMS5003;68550;-26.480;29.234;2023-04-01T17:42:04;9;9;
79141;PMS5003;68550;-26.480;29.234;2023-04-01T17:44:31;9;8;
79141;PMS5003;68550;-26.480;29.234;2023-04-01T17:46:59;10;10;
79141;PMS5003;68550;-26.480;29.234;2023-04-01T17:49:21;9;9;
79141;PMS5003;68550;-26.480;29.234;2023-04-01T17:51:43;8;8;
79141;PMS5003;68550;-26.480;29.234;2023-04-01T17:54:17;10;9;
79141;PMS5003;68550;-26.480;29.234;2023-04-01T17:56:36;10;9;
79141;PMS5003;68550;-26.480;29.234;2023-04-01T17:59:00;8;8;
79141;PMS5003;68550;-26.480;29.234;2023-04-01T18:01:29;9;9;
79141;PMS5003;68550;-26.480;29.234;2023-04-01T18:03:55;10;10;
79141;PMS5003;68550;-26.480;29.234;2023-04-01T18:06:19;10;9;
79141;PMS5003;68550;-26.480;29.234;2023-04-01T18:08:44;9;9;
79141;PMS5003;68550;-26.480;29.234;2023-04-01T18:11:11;8;8;
79141;PMS5003;68550;-26.480;29.234;2023-04-01T18:13:36;8;8;
79141;PMS5003;68550;-26.480;29.234;2023-04-01T18:16:00;8;8;
79141;PMS5003;68550;-26.480;29.234;2023-04-01T18:18:40;9;8;
79141;PMS5003;68550;-26.480;29.234;2023-04-01T18:20:51;11;10;
79141;PMS5003;68550;-26.480;29.234;2023-04-01T18:23:19;8;8;
79141;PMS5003;68550;-26.480;29.234;2023-04-01T18:25:39;8;8;
79141;PMS5003;68550;-26.480;29.234;2023-04-01T18:30:30;9;9;
79141;PMS5003;68550;-26.480;29.234;2023-04-01T18:32:56;9;9;
79141;PMS5003;68550;-26.480;29.234;2023-04-01T18:35:22;10;10;
79141;PMS5003;68550;-26.480;29.234;2023-04-01T18:37:46;10;9;
79141;PMS5003;68550;-26.480;29.234;2023-04-01T18:40:12;8;8;
79141;PMS5003;68550;-26.480;29.234;2023-04-01T18:42:38;8;8;
79141;PMS5003;68550;-26.480;29.234;2023-04-01T18:45:10;9;9;
79141;PMS5003;68550;-26.480;29.234;2023-04-01T18:47:30;9;9;
79141;PMS5003;68550;-26.480;29.234;2023-04-01T18:49:55;9;9;
79141;PMS5003;68550;-26.480;29.234;2023-04-01T18:52:19;8;8;
79141;PMS5003;68550;-26.480;29.234;2023-04-01T18:54:43;9;8;
79141;PMS5003;68550;-26.480;29.234;2023-04-01T18:57:10;7;7;
79141;PMS5003;68550;-26.480;29.234;2023-04-01T18:59:36;9;8;
79141;PMS5003;68550;-26.480;29.234;2023-04-01T19:02:01;9;9;
79141;PMS5003;68550;-26.480;29.234;2023-04-01T19:04:27;9;9;
79141;PMS5003;68550;-26.480;29.234;2023-04-01T19:07:47;4;4;
79141;PMS5003;68550;-26.480;29.234;2023-04-01T19:10:14;8;8;
79141;PMS5003;68550;-26.480;29.234;2023-04-01T19:12:37;10;9;
79141;PMS5003;68550;-26.480;29.234;2023-04-01T19:15:06;9;9;